Time;durP1;ratioP1;P1;durP2;ratioP2;P2;SDS_P1;SDS_P2;PMS_P1;PMS_P2;Temp;Humidity;BMP_temperature;BMP_pressure;BME280_temperature;BME280_humidity;BME280_pressure;Samples;Min_cycle;Max_cycle;Signal;HPM_P1;HPM_P2
2021/12/08 00:02:16;;;;;;;2.38;0.82;;;3.70;99.90;;;;;;4975048;28;20079;-84
2021/12/08 00:04:42;;;;;;;4.75;1.35;;;3.80;99.90;;;;;;4986999;28;20037;-84
2021/12/08 00:07:08;;;;;;;4.65;1.83;;;3.80;99.90;;;;;;4991016;28;20018;-84
2021/12/08 00:14:54;;;;;;;2.67;0.75;;;3.80;99.90;;;;;;4995040;28;20052;-83
2021/12/08 00:17:19;;;;;;;1.27;0.57;;;3.80;99.90;;;;;;4993149;28;20030;-85
2021/12/08 00:19:45;;;;;;;4.68;1.40;;;3.80;99.90;;;;;;5005575;28;20113;-83
2021/12/08 00:22:11;;;;;;;2.05;0.63;;;3.80;99.90;;;;;;4977924;28;20119;-83
2021/12/08 00:24:37;;;;;;;2.13;0.75;;;3.90;99.90;;;;;;4964960;28;20116;-84
2021/12/08 00:27:02;;;;;;;2.08;0.63;;;3.90;99.90;;;;;;4974971;28;20030;-84
2021/12/08 00:29:28;;;;;;;4.93;2.47;;;3.90;99.90;;;;;;5005511;28;20030;-84
2021/12/08 00:31:53;;;;;;;2.45;0.93;;;3.90;99.90;;;;;;5006967;28;20716;-83
2021/12/08 00:34:19;;;;;;;0.30;0.30;;;4.00;99.90;;;;;;4975852;28;20032;-83
2021/12/08 00:36:49;;;;;;;1.92;0.52;;;4.00;99.90;;;;;;5006591;28;20045;-83
2021/12/08 00:39:14;;;;;;;1.98;0.90;;;4.00;99.90;;;;;;4977463;28;20087;-83
2021/12/08 00:41:40;;;;;;;2.95;0.95;;;4.10;99.90;;;;;;4993541;28;20057;-83
2021/12/08 00:44:06;;;;;;;2.45;0.65;;;4.10;99.90;;;;;;5007685;28;20495;-83
2021/12/08 00:46:31;;;;;;;2.63;1.27;;;4.10;99.90;;;;;;5008679;28;20095;-85
2021/12/08 00:48:57;;;;;;;1.23;0.73;;;4.10;99.90;;;;;;5006893;28;20095;-85
2021/12/08 00:51:22;;;;;;;3.22;1.00;;;4.10;99.90;;;;;;4988871;28;20029;-84
2021/12/08 00:53:48;;;;;;;2.42;1.52;;;4.10;99.90;;;;;;4984458;28;20444;-84
2021/12/08 00:56:14;;;;;;;1.13;0.68;;;4.10;99.90;;;;;;4992094;28;20071;-85
2021/12/08 00:58:39;;;;;;;3.72;1.13;;;4.00;99.90;;;;;;4989988;28;20040;-84
2021/12/08 01:01:07;;;;;;;5.97;0.90;;;4.10;99.90;;;;;;4977600;28;20057;-84
2021/12/08 01:03:33;;;;;;;5.38;1.13;;;4.00;99.90;;;;;;4975678;28;20137;-84
2021/12/08 01:05:58;;;;;;;2.97;1.23;;;4.00;99.90;;;;;;5004934;28;20136;-85
2021/12/08 01:08:25;;;;;;;3.53;1.33;;;4.00;99.90;;;;;;4971142;28;20026;-84
2021/12/08 01:10:52;;;;;;;2.67;1.02;;;4.00;99.90;;;;;;4981325;28;20049;-84
2021/12/08 01:13:17;;;;;;;3.78;1.10;;;4.00;99.90;;;;;;4988765;28;20038;-84
2021/12/08 01:15:45;;;;;;;0.80;0.52;;;4.00;99.90;;;;;;4976731;28;20512;-85
2021/12/08 01:18:11;;;;;;;1.40;0.70;;;4.00;99.90;;;;;;5008661;28;20087;-84
2021/12/08 01:20:36;;;;;;;4.85;1.25;;;4.00;99.90;;;;;;4973025;28;20037;-84
2021/12/08 01:23:02;;;;;;;0.77;0.50;;;4.00;99.90;;;;;;5005453;28;20068;-84
2021/12/08 01:25:28;;;;;;;1.40;0.88;;;4.00;99.90;;;;;;4972535;28;20057;-84
2021/12/08 01:27:53;;;;;;;1.00;0.68;;;4.00;99.90;;;;;;4978067;28;20029;-84
2021/12/08 01:30:19;;;;;;;1.92;0.95;;;4.00;99.90;;;;;;4993466;28;20030;-84
2021/12/08 01:32:45;;;;;;;1.60;0.82;;;4.00;99.90;;;;;;4973565;28;20026;-84
2021/12/08 01:35:10;;;;;;;4.28;1.50;;;4.00;99.90;;;;;;4974441;28;20022;-85
2021/12/08 01:37:36;;;;;;;3.75;1.20;;;4.00;99.90;;;;;;4989493;28;20875;-85
2021/12/08 01:40:05;;;;;;;8.05;1.73;;;4.00;99.90;;;;;;4976594;28;20482;-84
2021/12/08 01:42:36;;;;;;;3.50;0.82;;;4.00;99.90;;;;;;4988393;28;20037;-85
2021/12/08 01:47:50;;;;;;;3.03;0.82;;;4.00;99.90;;;;;;4991485;28;20117;-84
2021/12/08 01:50:15;;;;;;;3.13;1.70;;;4.00;99.90;;;;;;4975974;28;20116;-85
2021/12/08 01:52:41;;;;;;;4.32;1.27;;;4.00;99.90;;;;;;4974237;28;20034;-84
2021/12/08 01:55:09;;;;;;;2.67;1.23;;;4.00;99.90;;;;;;4985469;28;20041;-84
2021/12/08 01:57:35;;;;;;;1.85;1.00;;;4.00;99.90;;;;;;4989564;28;20034;-85
2021/12/08 02:00:00;;;;;;;4.45;1.40;;;4.00;99.90;;;;;;4973448;28;20029;-84
2021/12/08 02:02:26;;;;;;;2.42;1.20;;;4.00;99.90;;;;;;4973997;28;20017;-84
2021/12/08 02:04:51;;;;;;;2.58;0.88;;;4.00;99.90;;;;;;5008116;28;20109;-85
2021/12/08 02:07:17;;;;;;;3.63;1.20;;;4.00;99.90;;;;;;4990097;28;20037;-85
2021/12/08 02:09:43;;;;;;;0.43;0.32;;;4.00;99.90;;;;;;4980898;28;20113;-85
2021/12/08 02:12:09;;;;;;;2.38;0.93;;;4.00;99.90;;;;;;4986101;28;20022;-85
2021/12/08 02:14:35;;;;;;;2.28;1.30;;;4.00;99.90;;;;;;4962881;28;20034;-85
2021/12/08 02:17:00;;;;;;;1.70;1.10;;;4.10;99.90;;;;;;4986920;28;20596;-85
2021/12/08 02:19:26;;;;;;;5.03;1.67;;;4.10;99.90;;;;;;4990304;28;20037;-84
2021/12/08 02:21:52;;;;;;;3.28;1.27;;;4.10;99.90;;;;;;4976154;28;20839;-85
2021/12/08 02:24:19;;;;;;;1.75;0.90;;;4.10;99.90;;;;;;5006089;28;20037;-84
2021/12/08 02:26:45;;;;;;;1.35;0.70;;;4.10;99.90;;;;;;4969270;28;20312;-85
2021/12/08 02:29:20;;;;;;;3.25;1.15;;;4.10;99.90;;;;;;4969606;28;20448;-85
2021/12/08 02:32:00;;;;;;;2.67;0.95;;;4.10;99.90;;;;;;4988464;28;20711;-85
2021/12/08 02:48:15;;;;;;;2.47;0.98;;;4.30;99.90;;;;;;4992690;28;20036;-85
2021/12/08 02:50:41;;;;;;;3.90;1.30;;;4.30;99.90;;;;;;4995460;28;20037;-85
2021/12/08 02:53:07;;;;;;;2.53;0.80;;;4.30;99.90;;;;;;4975981;28;20037;-85
2021/12/08 02:55:33;;;;;;;2.42;1.30;;;4.40;99.90;;;;;;4989933;28;20516;-84
2021/12/08 02:58:00;;;;;;;0.80;0.57;;;4.40;99.90;;;;;;4995219;28;20029;-85
2021/12/08 03:00:27;;;;;;;2.33;0.80;;;4.40;99.90;;;;;;4990398;28;20033;-85
2021/12/08 03:02:57;;;;;;;1.80;1.15;;;4.40;99.90;;;;;;4979591;28;20064;-84
2021/12/08 03:05:23;;;;;;;1.38;0.63;;;4.50;99.90;;;;;;5007183;28;20049;-85
2021/12/08 03:07:48;;;;;;;3.80;1.08;;;4.50;99.90;;;;;;4990317;28;20489;-80
2021/12/08 03:10:16;;;;;;;2.05;0.77;;;4.50;99.90;;;;;;4976961;28;20479;-80
2021/12/08 03:12:42;;;;;;;1.05;0.98;;;4.50;99.90;;;;;;4990420;28;20096;-80
2021/12/08 03:15:08;;;;;;;0.93;0.47;;;4.50;99.90;;;;;;4977861;28;20526;-80
2021/12/08 03:17:34;;;;;;;2.70;0.90;;;4.60;99.90;;;;;;4992689;28;20057;-80
2021/12/08 03:20:00;;;;;;;5.30;1.02;;;4.60;99.90;;;;;;4970524;28;20042;-80
2021/12/08 03:22:26;;;;;;;1.60;1.13;;;4.60;99.90;;;;;;4994927;28;20028;-80
2021/12/08 03:24:53;;;;;;;4.50;2.38;;;4.60;99.90;;;;;;4977653;28;20045;-80
2021/12/08 03:27:25;;;;;;;2.40;1.20;;;4.60;99.90;;;;;;4976523;28;20487;-80
2021/12/08 03:32:24;;;;;;;2.58;1.00;;;4.60;99.90;;;;;;4996649;28;20071;-80
2021/12/08 03:34:52;;;;;;;2.97;1.10;;;4.70;99.90;;;;;;4981811;28;20030;-80
2021/12/08 03:37:19;;;;;;;0.60;0.52;;;4.70;99.90;;;;;;4980387;28;20022;-80
2021/12/08 03:39:45;;;;;;;1.10;0.68;;;4.70;99.90;;;;;;4991928;28;20630;-80
2021/12/08 03:42:10;;;;;;;3.30;0.93;;;4.70;99.90;;;;;;4976292;28;20083;-80
2021/12/08 03:44:37;;;;;;;0.95;0.70;;;4.70;99.90;;;;;;5003403;28;20557;-80
2021/12/08 03:47:04;;;;;;;0.90;0.70;;;4.70;99.90;;;;;;4991803;28;20029;-80
2021/12/08 03:49:32;;;;;;;2.47;1.30;;;4.80;99.90;;;;;;4979695;28;20045;-80
2021/12/08 03:51:59;;;;;;;1.85;0.50;;;4.70;99.90;;;;;;4990896;28;20094;-85
2021/12/08 03:54:24;;;;;;;2.33;0.80;;;4.70;99.90;;;;;;4991657;28;20032;-85
2021/12/08 03:56:50;;;;;;;1.67;0.90;;;4.70;99.90;;;;;;4993605;28;20088;-84
2021/12/08 03:59:15;;;;;;;3.50;0.80;;;4.70;99.90;;;;;;4992728;28;20894;-84
2021/12/08 04:01:41;;;;;;;1.60;0.70;;;4.70;99.90;;;;;;4975062;28;20048;-84
2021/12/08 04:04:07;;;;;;;2.83;0.68;;;4.70;99.90;;;;;;4991036;28;20037;-85
2021/12/08 04:06:40;;;;;;;4.18;1.15;;;4.80;99.90;;;;;;4975467;28;20026;-84
2021/12/08 04:09:13;;;;;;;1.83;0.82;;;4.80;99.90;;;;;;4976135;28;20545;-84
2021/12/08 04:11:39;;;;;;;1.67;0.95;;;4.80;99.90;;;;;;5008070;28;20037;-85
2021/12/08 04:14:12;;;;;;;0.63;0.47;;;4.80;99.90;;;;;;5009317;28;20107;-84
2021/12/08 04:17:02;;;;;;;4.30;0.88;;;4.80;99.90;;;;;;5008405;28;20033;-85
2021/12/08 04:19:28;;;;;;;8.38;1.42;;;4.90;99.90;;;;;;5009888;28;20041;-84
2021/12/08 04:21:55;;;;;;;6.57;1.40;;;4.90;99.90;;;;;;4976249;28;20033;-84
2021/12/08 04:24:21;;;;;;;3.60;1.00;;;4.90;99.90;;;;;;4989401;28;20179;-84
2021/12/08 04:26:52;;;;;;;2.95;0.98;;;4.90;99.90;;;;;;4974680;28;20108;-84
2021/12/08 04:29:25;;;;;;;3.65;0.90;;;4.90;99.90;;;;;;4986917;28;20026;-84
2021/12/08 04:31:51;;;;;;;3.20;1.60;;;4.90;99.90;;;;;;4989328;28;20448;-84
2021/12/08 04:34:23;;;;;;;4.30;1.00;;;4.90;99.90;;;;;;4971343;28;20025;-84
2021/12/08 04:36:49;;;;;;;5.35;1.20;;;4.90;99.90;;;;;;4995760;28;20037;-85
2021/12/08 04:39:20;;;;;;;5.40;0.88;;;4.90;99.90;;;;;;5006369;28;20032;-85
2021/12/08 04:41:52;;;;;;;2.42;1.10;;;4.90;99.90;;;;;;5007917;28;20418;-85
2021/12/08 04:49:48;;;;;;;4.35;1.15;;;4.90;99.90;;;;;;5002572;28;20109;-84
2021/12/08 04:52:42;;;;;;;2.92;1.05;;;4.80;99.90;;;;;;5005181;28;20115;-85
2021/12/08 05:04:05;;;;;;;2.05;0.80;;;4.80;99.90;;;;;;4992185;28;20030;-85
2021/12/08 05:06:42;;;;;;;2.28;0.95;;;4.80;99.90;;;;;;4985314;28;20026;-83
2021/12/08 05:09:21;;;;;;;1.90;1.13;;;4.70;99.90;;;;;;5007777;28;20499;-84
2021/12/08 05:11:53;;;;;;;4.70;1.20;;;4.70;99.90;;;;;;4992693;28;20026;-84
2021/12/08 05:14:30;;;;;;;2.67;0.93;;;4.70;99.90;;;;;;4971631;28;20021;-84
2021/12/08 05:17:03;;;;;;;3.85;1.13;;;4.70;99.90;;;;;;5020061;28;20048;-85
2021/12/08 05:19:30;;;;;;;7.15;1.70;;;4.70;99.90;;;;;;4992817;28;20041;-84
2021/12/08 05:22:21;;;;;;;3.47;1.50;;;4.70;99.90;;;;;;4984924;28;20441;-84
2021/12/08 05:24:48;;;;;;;4.35;1.33;;;4.70;99.90;;;;;;4980968;28;20588;-85
2021/12/08 05:27:33;;;;;;;2.10;1.05;;;4.80;99.90;;;;;;4989856;28;20102;-84
2021/12/08 05:30:00;;;;;;;3.47;1.05;;;4.80;99.90;;;;;;4987502;28;20112;-85
2021/12/08 05:32:26;;;;;;;2.55;1.27;;;4.80;99.90;;;;;;4991263;28;20462;-84
2021/12/08 05:34:51;;;;;;;1.70;0.88;;;4.70;99.90;;;;;;4963387;28;20072;-84
2021/12/08 05:37:18;;;;;;;2.97;1.10;;;4.80;99.90;;;;;;4975378;28;20030;-85
2021/12/08 05:39:43;;;;;;;3.72;1.30;;;4.80;99.90;;;;;;5003593;28;20516;-85
2021/12/08 05:42:11;;;;;;;2.97;0.90;;;4.80;99.90;;;;;;4990315;28;20037;-85
2021/12/08 05:44:37;;;;;;;4.50;1.00;;;4.80;99.90;;;;;;4989016;28;20033;-85
2021/12/08 05:47:06;;;;;;;6.93;1.65;;;4.80;99.90;;;;;;4988070;28;20094;-84
2021/12/08 05:49:32;;;;;;;3.10;1.40;;;4.80;99.90;;;;;;4976784;28;20565;-85
2021/12/08 05:51:58;;;;;;;6.00;1.40;;;4.90;99.90;;;;;;4991515;28;20108;-85
2021/12/08 05:54:32;;;;;;;3.35;1.33;;;4.80;99.90;;;;;;4972862;28;20029;-85
2021/12/08 05:56:59;;;;;;;4.53;1.30;;;4.90;99.90;;;;;;4985032;28;20037;-85
2021/12/08 05:59:25;;;;;;;6.25;1.27;;;4.90;99.90;;;;;;4970307;28;20095;-85
2021/12/08 06:01:57;;;;;;;9.15;1.98;;;4.90;99.90;;;;;;4975705;28;20034;-85
2021/12/08 06:04:24;;;;;;;7.18;2.53;;;4.90;99.90;;;;;;4970914;28;20170;-85
2021/12/08 06:06:50;;;;;;;3.90;1.55;;;4.90;99.90;;;;;;4970755;28;20073;-85
2021/12/08 06:09:16;;;;;;;4.43;1.50;;;4.90;99.90;;;;;;4977911;28;20057;-85
2021/12/08 06:11:42;;;;;;;3.80;1.35;;;4.90;99.90;;;;;;4971414;28;20551;-85
2021/12/08 06:14:07;;;;;;;3.58;1.23;;;4.90;99.90;;;;;;4976167;28;20025;-85
2021/12/08 06:16:34;;;;;;;1.02;0.77;;;4.80;99.90;;;;;;5004906;28;20053;-85
2021/12/08 06:18:59;;;;;;;4.28;1.00;;;4.80;99.90;;;;;;4988976;28;20045;-85
2021/12/08 06:21:26;;;;;;;4.50;1.70;;;4.80;99.90;;;;;;5007808;28;20037;-85
2021/12/08 06:23:52;;;;;;;5.22;1.50;;;4.80;99.90;;;;;;4992251;28;20413;-85
2021/12/08 06:26:19;;;;;;;2.53;1.33;;;4.80;99.90;;;;;;4989189;28;20033;-85
2021/12/08 06:28:45;;;;;;;6.18;1.65;;;4.70;99.90;;;;;;4975058;28;20065;-85
2021/12/08 06:31:11;;;;;;;1.25;0.95;;;4.80;99.90;;;;;;4989898;28;20593;-85
2021/12/08 06:33:36;;;;;;;3.58;1.80;;;4.80;99.90;;;;;;4975716;28;20038;-85
2021/12/08 06:36:07;;;;;;;6.70;1.40;;;4.80;99.90;;;;;;4973906;28;20083;-85
2021/12/08 06:38:33;;;;;;;7.65;1.77;;;4.70;99.90;;;;;;4987373;28;20030;-84
2021/12/08 06:41:24;;;;;;;3.13;1.48;;;4.70;99.90;;;;;;4973700;28;20514;-85
2021/12/08 06:43:52;;;;;;;3.25;1.33;;;4.70;99.90;;;;;;4980807;28;20064;-84
2021/12/08 06:46:18;;;;;;;8.65;1.60;;;4.70;99.90;;;;;;4990145;28;20713;-85
2021/12/08 06:48:47;;;;;;;2.45;1.40;;;4.60;99.90;;;;;;4986924;28;20407;-84
2021/12/08 06:51:37;;;;;;;3.72;1.35;;;4.60;99.90;;;;;;4962161;28;20034;-85
2021/12/08 06:54:19;;;;;;;4.78;1.70;;;4.60;99.90;;;;;;4993591;28;20029;-86
2021/12/08 06:56:53;;;;;;;4.28;1.60;;;4.50;99.90;;;;;;4987962;28;20049;-85
2021/12/08 06:59:21;;;;;;;4.80;1.13;;;4.50;99.90;;;;;;4988391;28;20126;-85
2021/12/08 07:02:05;;;;;;;4.47;1.60;;;4.50;99.90;;;;;;4970594;28;20112;-85
2021/12/08 07:04:41;;;;;;;5.13;1.20;;;4.50;99.90;;;;;;4989963;28;20393;-85
2021/12/08 07:07:14;;;;;;;5.57;1.67;;;4.50;99.90;;;;;;4982705;28;20375;-84
2021/12/08 07:09:57;;;;;;;8.18;1.88;;;4.50;99.90;;;;;;5005248;28;20402;-85
2021/12/08 07:12:31;;;;;;;5.18;1.48;;;4.50;99.90;;;;;;4984032;28;20041;-85
2021/12/08 07:15:06;;;;;;;5.35;1.90;;;4.50;99.90;;;;;;4979092;28;20034;-85
2021/12/08 07:17:33;;;;;;;7.18;2.05;;;4.50;99.90;;;;;;4988515;28;20473;-85
2021/12/08 07:22:45;;;;;;;7.50;1.95;;;4.50;99.90;;;;;;4985896;28;20095;-84
2021/12/08 07:25:12;;;;;;;5.00;1.77;;;4.60;99.90;;;;;;4961393;28;20650;-85
2021/12/08 07:27:38;;;;;;;4.72;1.70;;;4.60;99.90;;;;;;4975428;28;20045;-85
2021/12/08 07:30:28;;;;;;;4.85;1.40;;;4.60;99.90;;;;;;5005766;28;20048;-85
2021/12/08 07:32:53;;;;;;;3.08;1.20;;;4.60;99.90;;;;;;5001166;28;20045;-85
2021/12/08 07:35:26;;;;;;;4.80;1.48;;;4.60;99.90;;;;;;4989193;28;20037;-85
2021/12/08 07:37:52;;;;;;;7.22;1.67;;;4.70;99.90;;;;;;4982235;28;20054;-85
2021/12/08 07:40:25;;;;;;;4.43;1.73;;;4.70;99.90;;;;;;4990179;28;20036;-85
2021/12/08 07:42:56;;;;;;;7.97;1.35;;;4.70;99.90;;;;;;4989372;28;20728;-85
2021/12/08 07:45:24;;;;;;;2.75;0.60;;;4.80;99.90;;;;;;4971519;28;20037;-86
2021/12/08 07:47:53;;;;;;;2.35;1.15;;;4.80;99.90;;;;;;5005475;28;20045;-85
2021/12/08 07:50:29;;;;;;;6.38;1.85;;;4.80;99.90;;;;;;4976019;28;20034;-85
2021/12/08 07:52:55;;;;;;;8.55;2.05;;;4.70;99.90;;;;;;4990512;28;20033;-86
2021/12/08 07:55:30;;;;;;;3.70;1.33;;;4.80;99.90;;;;;;4975723;28;20370;-85
2021/12/08 07:57:56;;;;;;;3.47;0.82;;;4.70;99.90;;;;;;5002711;28;20712;-85
2021/12/08 08:00:25;;;;;;;6.95;1.55;;;4.70;99.90;;;;;;4992045;28;20026;-85
2021/12/08 08:02:51;;;;;;;3.67;1.40;;;4.80;99.90;;;;;;4998820;28;20036;-84
2021/12/08 08:05:17;;;;;;;2.33;1.17;;;4.80;99.90;;;;;;4985632;28;20030;-85
2021/12/08 08:07:44;;;;;;;5.85;1.42;;;4.70;99.90;;;;;;5000424;28;20096;-86
2021/12/08 08:10:14;;;;;;;4.80;2.25;;;4.70;99.90;;;;;;4984992;28;20045;-85
2021/12/08 08:12:41;;;;;;;7.97;1.70;;;4.70;99.90;;;;;;4975996;28;20045;-86
2021/12/08 08:15:10;;;;;;;9.85;2.05;;;4.70;99.90;;;;;;5005400;28;20052;-85
2021/12/08 08:17:41;;;;;;;10.85;1.75;;;4.70;99.90;;;;;;4971289;28;20040;-85
2021/12/08 08:20:10;;;;;;;8.73;1.55;;;4.70;99.90;;;;;;4977527;28;20112;-85
2021/12/08 08:22:36;;;;;;;5.70;1.40;;;4.70;99.90;;;;;;4969030;28;20041;-86
2021/12/08 08:25:03;;;;;;;6.55;1.63;;;4.70;99.90;;;;;;5007003;28;20052;-85
2021/12/08 08:27:28;;;;;;;5.72;1.58;;;4.70;99.90;;;;;;4977205;28;20083;-85
2021/12/08 08:29:55;;;;;;;5.97;1.50;;;4.70;99.90;;;;;;5005803;28;20033;-86
2021/12/08 08:32:26;;;;;;;6.53;2.00;;;4.70;99.90;;;;;;4990729;28;20029;-86
2021/12/08 08:34:54;;;;;;;5.97;1.20;;;4.70;99.90;;;;;;4992294;28;20036;-85
2021/12/08 08:37:20;;;;;;;10.25;1.42;;;4.80;99.90;;;;;;4988745;28;20052;-86
2021/12/08 08:39:55;;;;;;;6.03;2.60;;;4.80;99.90;;;;;;4986999;28;20366;-85
2021/12/08 08:42:27;;;;;;;6.93;1.85;;;4.80;99.90;;;;;;4986421;28;20068;-85
2021/12/08 08:44:58;;;;;;;14.82;2.40;;;4.80;99.90;;;;;;4984372;28;20109;-85
2021/12/08 08:47:30;;;;;;;4.22;1.70;;;4.80;99.90;;;;;;4987537;28;20033;-86
2021/12/08 08:49:55;;;;;;;5.45;1.70;;;4.80;99.90;;;;;;4975970;28;20041;-85
2021/12/08 08:52:28;;;;;;;5.90;1.63;;;4.90;99.90;;;;;;4974600;28;21308;-85
2021/12/08 08:54:55;;;;;;;10.23;2.53;;;4.90;99.90;;;;;;4969091;28;20050;-86
2021/12/08 08:57:25;;;;;;;5.72;2.30;;;4.90;99.90;;;;;;4976018;28;20530;-85
2021/12/08 08:59:55;;;;;;;5.70;1.45;;;4.90;99.90;;;;;;4988381;28;20377;-86
2021/12/08 09:02:24;;;;;;;11.50;1.67;;;4.90;99.90;;;;;;4989028;28;20083;-86
2021/12/08 09:05:02;;;;;;;9.30;1.88;;;4.90;99.90;;;;;;5005192;28;20029;-86
2021/12/08 09:07:34;;;;;;;5.47;1.60;;;5.00;99.90;;;;;;4989641;28;20504;-86
2021/12/08 09:10:04;;;;;;;11.55;1.90;;;5.00;99.90;;;;;;4973415;28;20025;-86
2021/12/08 09:12:38;;;;;;;5.15;1.50;;;5.00;99.90;;;;;;4974893;28;20643;-85
2021/12/08 09:15:31;;;;;;;6.80;1.52;;;5.00;99.90;;;;;;4988547;28;20025;-85
2021/12/08 09:18:22;;;;;;;13.38;1.70;;;5.10;99.90;;;;;;4986465;28;20111;-86
2021/12/08 09:21:09;;;;;;;5.15;1.25;;;5.10;99.90;;;;;;4988555;28;20064;-86
2021/12/08 09:23:42;;;;;;;6.15;1.40;;;5.10;99.90;;;;;;4981853;28;20505;-85
2021/12/08 09:26:11;;;;;;;7.22;1.30;;;5.20;99.90;;;;;;5007861;28;20026;-86
2021/12/08 09:29:07;;;;;;;5.05;1.27;;;5.20;99.90;;;;;;4975378;28;20030;-86
2021/12/08 09:31:35;;;;;;;4.43;0.90;;;5.20;99.90;;;;;;4985106;28;20026;-86
2021/12/08 09:34:05;;;;;;;6.70;1.45;;;5.30;99.90;;;;;;4971928;28;20025;-86
2021/12/08 09:36:35;;;;;;;7.05;1.50;;;5.30;99.90;;;;;;4971996;28;20044;-86
2021/12/08 09:39:07;;;;;;;5.93;1.50;;;5.30;99.90;;;;;;4957920;28;20710;-86
2021/12/08 09:41:50;;;;;;;7.22;1.50;;;5.40;99.90;;;;;;4972933;28;20033;-85
2021/12/08 09:44:19;;;;;;;9.02;2.05;;;5.40;99.90;;;;;;5006121;28;20035;-87
2021/12/08 09:46:46;;;;;;;4.35;1.20;;;5.50;99.90;;;;;;4962732;28;20376;-86
2021/12/08 09:49:13;;;;;;;7.80;1.55;;;5.50;99.90;;;;;;4980767;28;20080;-87
2021/12/08 09:51:39;;;;;;;10.32;1.50;;;5.50;99.90;;;;;;4971687;28;20406;-85
2021/12/08 09:54:05;;;;;;;9.23;1.23;;;5.50;99.90;;;;;;4997304;28;20036;-85
2021/12/08 09:56:33;;;;;;;9.15;2.15;;;5.60;99.90;;;;;;4972891;28;20053;-85
2021/12/08 09:58:58;;;;;;;5.68;1.80;;;5.60;99.90;;;;;;4984515;28;20033;-86
2021/12/08 10:01:24;;;;;;;5.47;1.48;;;5.70;99.90;;;;;;4974010;28;20034;-85
2021/12/08 10:03:51;;;;;;;5.65;1.40;;;5.70;99.90;;;;;;5006332;28;20037;-84
2021/12/08 10:06:17;;;;;;;4.63;1.38;;;5.80;99.90;;;;;;4981682;28;20037;-86
2021/12/08 10:08:43;;;;;;;11.43;1.42;;;5.80;99.90;;;;;;4989123;28;20060;-86
2021/12/08 10:11:10;;;;;;;7.47;1.20;;;5.80;99.90;;;;;;4984142;28;20473;-86
2021/12/08 10:13:35;;;;;;;5.65;0.95;;;5.90;99.90;;;;;;4973712;28;20033;-86
2021/12/08 10:16:01;;;;;;;3.60;1.40;;;6.00;99.90;;;;;;4987120;28;20064;-86
2021/12/08 10:18:26;;;;;;;6.72;1.45;;;6.00;99.90;;;;;;4975038;28;20056;-86
2021/12/08 10:20:53;;;;;;;7.28;1.38;;;6.00;99.90;;;;;;5000738;28;20734;-86
2021/12/08 10:23:24;;;;;;;11.85;1.80;;;6.00;99.90;;;;;;4978093;28;20099;-86
2021/12/08 10:25:58;;;;;;;17.13;2.10;;;6.00;99.90;;;;;;4999509;28;20038;-86
2021/12/08 10:28:34;;;;;;;7.68;1.48;;;6.10;99.90;;;;;;4971935;28;20029;-86
2021/12/08 10:31:07;;;;;;;5.85;1.77;;;6.10;99.90;;;;;;5001296;28;20061;-85
2021/12/08 10:36:46;;;;;;;9.40;1.38;;;6.20;99.90;;;;;;4998239;28;20039;-85
2021/12/08 10:39:15;;;;;;;9.90;1.63;;;6.20;99.90;;;;;;4987821;28;20041;-86
2021/12/08 10:41:53;;;;;;;3.25;1.05;;;6.20;99.90;;;;;;5005897;28;20037;-86
2021/12/08 10:47:36;;;;;;;4.55;1.45;;;6.30;99.90;;;;;;5003621;28;20040;-86
2021/12/08 10:55:57;;;;;;;7.10;1.65;;;6.30;99.90;;;;;;4991981;28;20436;-87
2021/12/08 10:58:29;;;;;;;12.00;1.58;;;6.30;99.90;;;;;;4973133;28;20390;-87
2021/12/08 11:00:55;;;;;;;4.22;1.02;;;6.40;99.90;;;;;;4973656;28;20029;-87
2021/12/08 11:03:21;;;;;;;5.00;1.30;;;6.40;99.90;;;;;;4977899;28;20040;-86
2021/12/08 11:05:50;;;;;;;7.53;2.15;;;6.40;99.90;;;;;;4974841;28;20041;-86
2021/12/08 11:08:24;;;;;;;8.73;1.42;;;6.50;99.90;;;;;;4998784;28;20041;-87
2021/12/08 11:10:59;;;;;;;3.22;1.02;;;6.50;99.90;;;;;;5001575;28;20120;-87
2021/12/08 11:13:29;;;;;;;3.70;1.63;;;6.60;99.90;;;;;;5020244;28;20033;-87
2021/12/08 11:16:20;;;;;;;5.18;1.20;;;6.50;99.90;;;;;;4985710;28;20037;-87
2021/12/08 11:18:50;;;;;;;4.65;1.40;;;6.60;99.90;;;;;;4998778;28;20603;-87
2021/12/08 11:21:23;;;;;;;6.50;1.30;;;6.60;99.90;;;;;;4985387;28;20030;-87
2021/12/08 11:23:52;;;;;;;5.38;0.90;;;6.70;99.90;;;;;;4988797;28;20143;-87
2021/12/08 11:26:37;;;;;;;12.30;1.75;;;6.70;99.90;;;;;;4988576;28;20034;-86
2021/12/08 11:29:39;;;;;;;6.00;0.70;;;6.70;99.90;;;;;;5007398;28;20120;-86
2021/12/08 11:32:06;;;;;;;5.05;0.85;;;6.70;99.90;;;;;;4893547;29;20051;-86
2021/12/08 11:34:33;;;;;;;1.00;0.20;;;6.70;99.90;;;;;;4955341;28;20034;-86
2021/12/08 11:37:03;;;;;;;9.90;1.25;;;6.70;99.90;;;;;;4990234;28;20043;-87
2021/12/08 11:39:35;;;;;;;7.82;1.15;;;6.70;99.90;;;;;;4981126;28;20412;-87
2021/12/08 11:42:12;;;;;;;9.52;1.50;;;6.80;99.90;;;;;;5006778;28;20033;-86
2021/12/08 11:44:43;;;;;;;6.10;1.17;;;6.80;99.90;;;;;;4992496;28;20603;-87
2021/12/08 11:47:14;;;;;;;4.32;0.80;;;6.80;99.90;;;;;;4989340;28;20058;-86
2021/12/08 11:49:50;;;;;;;6.63;1.50;;;6.90;99.90;;;;;;5009108;28;20042;-87
2021/12/08 11:52:20;;;;;;;6.93;1.10;;;6.90;99.90;;;;;;4977864;28;20462;-86
2021/12/08 11:55:02;;;;;;;3.58;0.70;;;6.90;99.90;;;;;;4978334;28;20036;-87
2021/12/08 11:57:40;;;;;;;6.22;1.13;;;7.00;99.90;;;;;;4983598;28;20041;-86
2021/12/08 12:00:20;;;;;;;2.03;0.90;;;7.00;99.90;;;;;;4991114;28;20037;-86
2021/12/08 12:03:01;;;;;;;6.20;1.25;;;7.00;99.90;;;;;;4989193;28;20022;-87
2021/12/08 12:05:30;;;;;;;2.03;0.88;;;7.00;99.90;;;;;;4991725;28;20056;-86
2021/12/08 12:07:56;;;;;;;4.68;1.15;;;7.00;99.90;;;;;;4992939;28;20038;-86
2021/12/08 12:10:24;;;;;;;4.63;0.63;;;7.00;99.90;;;;;;4976740;28;20044;-87
2021/12/08 12:12:50;;;;;;;7.07;1.17;;;7.00;99.90;;;;;;4972106;28;20335;-87
2021/12/08 12:15:17;;;;;;;8.07;1.25;;;7.00;99.90;;;;;;4984211;28;20034;-86
2021/12/08 12:17:43;;;;;;;7.68;1.30;;;7.10;99.90;;;;;;4973957;28;20041;-86
2021/12/08 12:20:17;;;;;;;3.42;0.95;;;7.10;99.90;;;;;;4966563;28;20513;-86
2021/12/08 12:22:58;;;;;;;2.20;0.70;;;7.10;99.90;;;;;;4993344;28;20702;-86
2021/12/08 12:25:30;;;;;;;8.23;1.35;;;7.10;99.90;;;;;;4986751;28;20033;-86
2021/12/08 12:28:19;;;;;;;6.03;1.08;;;7.10;99.90;;;;;;5003390;28;20058;-87
2021/12/08 12:31:22;;;;;;;3.28;1.08;;;7.00;99.90;;;;;;4991608;28;21399;-86
2021/12/08 12:33:49;;;;;;;7.28;1.27;;;7.00;99.90;;;;;;5000883;28;20141;-86
2021/12/08 12:36:27;;;;;;;5.03;0.98;;;7.00;99.90;;;;;;4984980;28;20482;-86
2021/12/08 12:38:53;;;;;;;5.50;1.05;;;7.00;99.90;;;;;;4975813;28;20036;-86
2021/12/08 12:41:30;;;;;;;6.38;1.40;;;7.00;99.90;;;;;;4978828;28;20033;-87
2021/12/08 12:44:21;;;;;;;5.05;0.85;;;7.00;99.90;;;;;;4990331;28;20033;-86
2021/12/08 12:47:09;;;;;;;7.07;1.20;;;7.10;99.90;;;;;;5006677;28;20030;-86
2021/12/08 12:49:36;;;;;;;7.65;1.08;;;7.10;99.90;;;;;;5000731;28;20033;-85
2021/12/08 12:52:06;;;;;;;6.72;1.13;;;7.10;99.90;;;;;;4972579;28;20053;-86
2021/12/08 12:54:31;;;;;;;9.52;1.58;;;7.10;99.90;;;;;;5005467;28;20033;-86
2021/12/08 12:56:57;;;;;;;6.75;2.38;;;7.00;99.90;;;;;;4970280;28;20041;-86
2021/12/08 12:59:27;;;;;;;1.50;0.43;;;7.10;99.90;;;;;;5007725;28;20445;-86
2021/12/08 13:02:07;;;;;;;5.07;0.90;;;7.10;99.90;;;;;;4991856;28;20040;-86
2021/12/08 13:04:35;;;;;;;5.07;1.08;;;7.10;99.90;;;;;;4986018;28;20484;-86
2021/12/08 13:07:04;;;;;;;11.52;1.10;;;7.10;99.90;;;;;;4968497;28;20033;-86
2021/12/08 13:09:42;;;;;;;2.47;0.90;;;7.10;99.90;;;;;;5002395;28;20033;-86
2021/12/08 13:12:09;;;;;;;8.27;1.10;;;7.10;99.90;;;;;;5021616;28;20378;-86
2021/12/08 13:14:35;;;;;;;2.13;0.75;;;7.10;99.90;;;;;;4988657;28;20086;-86
2021/12/08 13:17:22;;;;;;;2.10;1.05;;;7.10;99.90;;;;;;5003633;28;20033;-85
2021/12/08 13:19:55;;;;;;;2.95;0.93;;;7.10;99.90;;;;;;4980838;28;20084;-84
2021/12/08 13:22:40;;;;;;;9.15;1.48;;;7.10;99.90;;;;;;4630688;28;9999892;-84
2021/12/08 13:25:17;;;;;;;4.70;1.35;;;7.00;99.90;;;;;;5004695;28;20037;-84
2021/12/08 13:27:48;;;;;;;6.82;1.35;;;7.00;99.90;;;;;;4984414;28;20049;-84
2021/12/08 13:30:15;;;;;;;5.90;1.25;;;7.00;99.90;;;;;;4984619;28;20033;-84
2021/12/08 13:32:46;;;;;;;5.30;1.45;;;7.00;99.90;;;;;;4973115;28;20520;-84
2021/12/08 13:35:12;;;;;;;6.95;1.10;;;6.90;99.90;;;;;;4984681;28;20109;-85
2021/12/08 13:37:54;;;;;;;3.28;1.00;;;6.90;99.90;;;;;;4983051;28;20026;-84
2021/12/08 13:40:20;;;;;;;10.15;1.23;;;6.80;99.90;;;;;;4988912;28;20408;-84
2021/12/08 13:42:50;;;;;;;4.50;1.08;;;6.90;99.90;;;;;;4984714;28;20121;-85
2021/12/08 13:45:16;;;;;;;6.63;1.02;;;6.90;99.90;;;;;;4971678;28;20052;-85
2021/12/08 13:47:44;;;;;;;6.75;1.60;;;6.80;99.90;;;;;;4970079;28;20102;-85
2021/12/08 13:50:10;;;;;;;4.78;1.67;;;6.80;99.90;;;;;;4988110;28;20235;-84
2021/12/08 13:52:40;;;;;;;2.33;1.10;;;6.80;99.90;;;;;;4979428;28;20033;-84
2021/12/08 13:55:09;;;;;;;8.30;1.17;;;6.80;99.90;;;;;;4980739;28;20574;-85
2021/12/08 13:57:42;;;;;;;12.35;1.40;;;6.80;99.90;;;;;;5005468;28;20030;-85
2021/12/08 14:00:17;;;;;;;8.70;1.67;;;6.70;99.90;;;;;;4999057;28;20022;-85
2021/12/08 14:02:51;;;;;;;12.10;1.42;;;6.70;99.90;;;;;;5004880;28;20072;-84
2021/12/08 14:05:28;;;;;;;4.82;1.17;;;6.70;99.90;;;;;;4987666;28;20026;-85